createdAt,value
2022-09-20T00:01:32.198Z,74.29
2022-09-20T00:04:01.868Z,74.49
2022-09-20T00:06:36.259Z,74.69
2022-09-20T00:09:04.387Z,74.88
2022-09-20T00:11:33.406Z,74.81
2022-09-20T00:14:03.881Z,74.95
2022-09-20T00:16:39.514Z,74.70
2022-09-20T00:19:21.332Z,74.78
2022-09-20T00:21:52.780Z,75.04
2022-09-20T00:24:19.411Z,75.34
2022-09-20T00:26:48.793Z,75.25
2022-09-20T00:29:18.512Z,75.06
2022-09-20T00:31:47.476Z,75.43
2022-09-20T00:34:23.255Z,75.24
2022-09-20T00:36:51.504Z,75.58
2022-09-20T00:39:18.323Z,75.71
2022-09-20T00:41:45.233Z,75.67
2022-09-20T00:44:45.875Z,75.95
2022-09-20T00:47:19.474Z,75.69
2022-09-20T00:49:52.344Z,76.14
2022-09-20T00:52:36.157Z,75.67
2022-09-20T00:55:07.054Z,76.07
2022-09-20T00:57:44.991Z,75.71
2022-09-20T01:00:24.873Z,76.38
2022-09-20T01:02:57.113Z,76.62
2022-09-20T01:05:28.499Z,76.48
2022-09-20T01:08:00.761Z,76.49
2022-09-20T01:10:31.521Z,76.25
2022-09-20T01:13:11.973Z,76.25
2022-09-20T01:15:45.377Z,76.65
2022-09-20T01:18:15.818Z,76.45
2022-09-20T01:20:49.114Z,76.69
2022-09-20T01:23:35.398Z,76.87
2022-09-20T01:26:55.475Z,76.97
2022-09-20T01:29:57.675Z,76.84
2022-09-20T01:32:34.710Z,76.85
2022-09-20T01:35:09.488Z,76.44
2022-09-20T01:38:01.644Z,76.76
2022-09-20T01:40:50.280Z,76.34
2022-09-20T01:43:28.346Z,76.34
2022-09-20T01:46:13.320Z,76.38
2022-09-20T01:48:42.462Z,76.03
2022-09-20T01:51:36.603Z,76.05
2022-09-20T01:54:39.794Z,76.16
2022-09-20T01:57:53.934Z,76.03
2022-09-20T02:00:23.981Z,76.27
2022-09-20T02:03:19.152Z,75.75
2022-09-20T02:06:19.138Z,76.24
2022-09-20T02:09:31.775Z,76.12
2022-09-20T02:12:38.596Z,75.95
2022-09-20T02:15:36.853Z,75.86
2022-09-20T02:18:36.157Z,75.70
2022-09-20T02:21:14.768Z,75.54
2022-09-20T02:24:00.806Z,75.76
2022-09-20T02:27:04.692Z,75.87
2022-09-20T02:30:09.305Z,75.77
2022-09-20T02:36:25.423Z,75.15
2022-09-20T02:39:07.009Z,75.58
2022-09-20T02:42:05.499Z,76.43
2022-09-20T02:45:05.662Z,76.50
2022-09-20T02:47:43.514Z,76.51
2022-09-20T02:50:44.164Z,77.33
2022-09-20T02:53:35.428Z,77.16
2022-09-20T02:56:17.993Z,77.05
2022-09-20T02:59:43.136Z,77.83
2022-09-20T03:02:25.287Z,77.36
2022-09-20T03:05:14.820Z,77.06
2022-09-20T03:08:22.570Z,77.43
2022-09-20T03:11:39.063Z,77.17
2022-09-20T03:18:03.919Z,77.32
2022-09-20T03:20:56.582Z,77.37
2022-09-20T03:27:19.340Z,77.14
2022-09-20T03:30:12.344Z,77.58
2022-09-20T03:33:22.810Z,77.39
2022-09-20T03:36:18.010Z,77.69
2022-09-20T03:39:33.221Z,77.78
2022-09-20T03:45:47.159Z,77.74
2022-09-20T03:48:38.372Z,77.76
2022-09-20T03:51:25.174Z,78.13
2022-09-20T03:54:39.851Z,78.02
2022-09-20T03:57:44.480Z,78.56
2022-09-20T04:00:40.645Z,78.33
2022-09-20T04:03:48.144Z,78.45
2022-09-20T04:06:40.172Z,78.59
2022-09-20T04:09:39.464Z,78.73
2022-09-20T04:12:19.768Z,78.71
2022-09-20T04:14:58.910Z,78.80
2022-09-20T04:17:50.162Z,78.59
2022-09-20T04:20:25.550Z,79.04
2022-09-20T04:23:24.886Z,79.00
2022-09-20T04:26:03.163Z,78.84
2022-09-20T04:28:39.785Z,79.00
2022-09-20T04:34:22.722Z,79.37
2022-09-20T04:37:43.479Z,79.67
2022-09-20T04:40:36.882Z,80.06
2022-09-20T04:43:47.692Z,79.83
2022-09-20T04:46:56.610Z,79.99
2022-09-20T04:49:58.377Z,80.30
2022-09-20T04:53:06.490Z,80.29
2022-09-20T04:56:04.071Z,80.26
2022-09-20T04:59:04.236Z,80.58
2022-09-20T05:05:55.808Z,82.00
2022-09-20T05:09:09.806Z,81.71
2022-09-20T05:12:01.910Z,81.21
2022-09-20T05:15:31.021Z,81.25
2022-09-20T05:18:34.284Z,81.71
2022-09-20T05:21:33.094Z,81.39
2022-09-20T05:24:12.605Z,81.67
2022-09-20T05:27:33.963Z,81.13
2022-09-20T05:30:17.349Z,81.35
2022-09-20T05:33:03.948Z,81.94
2022-09-20T05:35:44.509Z,81.93
2022-09-20T05:38:23.386Z,81.55
2022-09-20T05:41:14.759Z,81.78
2022-09-20T05:44:04.112Z,82.12
2022-09-20T05:47:00.426Z,82.53
2022-09-20T05:49:55.373Z,82.30
2022-09-20T05:52:56.677Z,82.40
2022-09-20T05:56:08.159Z,82.47
2022-09-20T05:59:15.504Z,82.39
2022-09-20T06:02:00.672Z,82.27
2022-09-20T06:04:39.367Z,82.49
2022-09-20T06:07:27.376Z,82.37
2022-09-20T06:10:25.412Z,82.88
2022-09-20T06:13:04.591Z,83.01
2022-09-20T06:15:44.553Z,82.82
2022-09-20T06:18:42.324Z,83.15
2022-09-20T06:21:26.156Z,83.13
2022-09-20T06:24:07.907Z,83.47
2022-09-20T06:26:45.899Z,83.35
2022-09-20T06:29:32.265Z,83.38
2022-09-20T06:32:01.535Z,83.54
2022-09-20T06:34:38.325Z,83.36
2022-09-20T06:37:23.034Z,83.54
2022-09-20T06:40:04.704Z,83.52
2022-09-20T06:42:53.828Z,83.37
2022-09-20T06:45:20.585Z,83.63
2022-09-20T06:47:54.445Z,83.90
2022-09-20T06:50:33.943Z,83.83
2022-09-20T06:53:11.126Z,83.12
2022-09-20T06:55:56.159Z,83.38
2022-09-20T06:58:29.050Z,82.91
2022-09-20T07:03:55.873Z,82.40
2022-09-20T07:06:36.540Z,82.16
2022-09-20T07:09:05.033Z,82.10
2022-09-20T07:14:25.714Z,81.38
2022-09-20T07:17:01.451Z,80.82
2022-09-20T07:19:40.122Z,80.91
2022-09-20T07:22:23.041Z,80.74
2022-09-20T07:24:57.265Z,80.59
2022-09-20T07:27:31.647Z,80.13
2022-09-20T07:30:14.258Z,79.97
2022-09-20T07:32:51.373Z,79.86
2022-09-20T07:35:31.849Z,79.75
2022-09-20T07:38:13.968Z,79.41
2022-09-20T07:40:48.279Z,79.31
2022-09-20T07:43:27.280Z,78.88
2022-09-20T07:45:57.248Z,78.39
2022-09-20T07:48:29.717Z,78.38
2022-09-20T07:51:18.300Z,78.28
2022-09-20T07:53:47.788Z,78.48
2022-09-20T07:56:24.101Z,78.03
2022-09-20T07:58:53.796Z,78.20
2022-09-20T08:01:25.934Z,78.14
2022-09-20T08:04:06.921Z,78.05
2022-09-20T08:06:40.887Z,78.01
2022-09-20T08:15:19.011Z,76.54
2022-09-20T08:18:07.533Z,75.10
2022-09-20T08:20:42.374Z,75.61
2022-09-20T08:23:27.534Z,75.13
2022-09-20T08:26:11.375Z,74.67
2022-09-20T08:28:39.374Z,73.79
2022-09-20T08:31:20.567Z,73.34
2022-09-20T08:34:03.017Z,72.51
2022-09-20T08:36:36.718Z,72.28
2022-09-20T08:42:21.179Z,70.01
2022-09-20T08:45:00.831Z,70.02
2022-09-20T08:47:34.529Z,69.18
2022-09-20T08:50:20.539Z,69.38
2022-09-20T08:53:00.151Z,69.33
2022-09-20T08:55:39.818Z,69.55
2022-09-20T08:58:19.185Z,67.75
2022-09-20T09:01:04.534Z,68.52
2022-09-20T09:03:38.219Z,67.44
2022-09-20T09:06:27.297Z,66.77
2022-09-20T09:09:39.110Z,57.77
2022-09-20T09:12:26.132Z,60.02
2022-09-20T09:15:21.107Z,61.46
2022-09-20T09:18:31.709Z,61.48
2022-09-20T09:21:23.293Z,60.95
2022-09-20T09:24:09.675Z,60.54
2022-09-20T09:26:56.158Z,57.45
2022-09-20T09:29:45.277Z,60.07
2022-09-20T09:32:40.672Z,58.41
2022-09-20T09:35:31.110Z,60.27
2022-09-20T09:38:01.359Z,61.42
2022-09-20T09:41:04.745Z,61.33
2022-09-20T09:46:32.941Z,62.34
2022-09-20T09:49:32.294Z,60.81
2022-09-20T09:52:26.682Z,61.02
2022-09-20T09:55:04.612Z,61.91
2022-09-20T09:57:50.090Z,60.79
2022-09-20T10:03:46.432Z,58.94
2022-09-20T10:06:31.451Z,60.89
2022-09-20T10:09:24.316Z,56.29
2022-09-20T10:12:14.373Z,57.17
2022-09-20T10:15:18.696Z,53.03
2022-09-20T10:18:16.459Z,53.44
2022-09-20T10:21:04.400Z,53.58
2022-09-20T10:24:11.547Z,54.30
2022-09-20T10:27:18.956Z,56.39
2022-09-20T10:30:05.723Z,55.68
2022-09-20T10:33:02.573Z,56.53
2022-09-20T10:35:57.715Z,55.82
2022-09-20T10:38:42.260Z,55.94
2022-09-20T10:41:53.208Z,55.26
2022-09-20T10:44:55.091Z,56.05
2022-09-20T10:47:34.838Z,56.55
2022-09-20T10:51:24.641Z,55.86
2022-09-20T10:54:16.860Z,56.12
2022-09-20T10:57:08.829Z,55.67
2022-09-20T11:00:20.005Z,56.48
2022-09-20T11:06:45.818Z,54.26
2022-09-20T11:10:03.917Z,47.32
2022-09-20T11:12:54.794Z,49.50
2022-09-20T11:15:44.992Z,48.90
2022-09-20T11:21:29.553Z,47.70
2022-09-20T11:27:42.801Z,49.19
2022-09-20T11:30:27.511Z,48.79
2022-09-20T11:33:39.327Z,48.85
2022-09-20T11:36:43.869Z,49.71
2022-09-20T11:39:47.824Z,47.02
2022-09-20T11:42:35.994Z,46.90
2022-09-20T11:45:28.421Z,42.03
2022-09-20T11:48:36.798Z,41.93
2022-09-20T11:51:59.746Z,42.88
2022-09-20T11:55:26.765Z,43.97
2022-09-20T11:58:13.677Z,44.38
2022-09-20T12:04:31.305Z,44.19
2022-09-20T12:07:23.945Z,43.63
2022-09-20T12:10:01.457Z,41.94
2022-09-20T12:12:48.338Z,40.57
2022-09-20T12:15:58.178Z,42.13
2022-09-20T12:22:28.625Z,47.88
2022-09-20T12:25:32.342Z,48.28
2022-09-20T12:28:26.365Z,47.80
2022-09-20T12:34:41.232Z,49.53
2022-09-20T12:37:30.818Z,48.92
2022-09-20T12:43:27.122Z,49.59
2022-09-20T12:46:28.747Z,48.97
2022-09-20T12:51:55.168Z,48.11
2022-09-20T12:54:33.073Z,48.41
2022-09-20T12:57:28.711Z,48.17
2022-09-20T13:00:40.604Z,48.23
2022-09-20T13:03:57.853Z,48.73
2022-09-20T13:06:41.157Z,48.33
2022-09-20T13:09:52.457Z,48.53
2022-09-20T13:12:54.428Z,46.27
2022-09-20T13:15:27.527Z,46.05
2022-09-20T13:18:15.395Z,45.10
2022-09-20T13:20:52.495Z,45.44
2022-09-20T13:23:27.577Z,45.64
2022-09-20T13:26:09.677Z,46.39
2022-09-20T13:28:57.438Z,44.25
2022-09-20T13:31:42.382Z,45.28
2022-09-20T13:34:56.430Z,40.76
2022-09-20T13:38:01.932Z,41.24
2022-09-20T13:40:35.541Z,40.99
2022-09-20T13:43:24.116Z,42.01
2022-09-20T13:46:22.232Z,41.06
2022-09-20T13:52:41.071Z,43.12
2022-09-20T13:55:30.258Z,43.15
2022-09-20T14:04:10.491Z,44.54
2022-09-20T14:10:29.368Z,43.42
2022-09-20T14:13:22.620Z,42.62
2022-09-20T14:25:24.426Z,42.56
2022-09-20T14:31:40.793Z,41.61
2022-09-20T14:35:00.430Z,40.09
2022-09-20T14:38:04.432Z,38.92
2022-09-20T14:54:18.089Z,39.49
2022-09-20T14:57:07.132Z,40.20
2022-09-20T15:03:25.524Z,42.78
2022-09-20T15:06:54.767Z,45.13
2022-09-20T15:12:45.718Z,46.92
2022-09-20T15:15:19.213Z,46.36
2022-09-20T15:17:56.219Z,47.08
2022-09-20T15:20:34.864Z,47.12
2022-09-20T15:23:04.464Z,47.72
2022-09-20T15:25:38.785Z,48.30
2022-09-20T15:31:17.328Z,49.45
2022-09-20T15:39:15.356Z,50.06
2022-09-20T15:41:47.269Z,49.86
2022-09-20T15:44:24.892Z,50.31
2022-09-20T15:46:59.213Z,51.08
2022-09-20T15:50:04.566Z,51.49
2022-09-20T15:52:48.887Z,50.54
2022-09-20T15:55:20.164Z,49.92
2022-09-20T15:57:47.474Z,49.20
2022-09-20T16:00:18.512Z,48.97
2022-09-20T16:02:57.318Z,48.86
2022-09-20T16:05:48.847Z,48.86
2022-09-20T16:31:08.765Z,51.06
2022-09-20T16:33:52.386Z,50.66
2022-09-20T16:39:47.437Z,51.18
2022-09-20T16:42:21.890Z,50.59
2022-09-20T16:45:02.141Z,50.90
2022-09-20T16:47:41.773Z,51.25
2022-09-20T16:51:02.934Z,51.73
2022-09-20T16:56:49.391Z,51.69
2022-09-20T17:06:26.369Z,53.24
2022-09-20T17:19:46.352Z,54.60
2022-09-20T17:22:54.695Z,54.45
2022-09-20T17:26:10.197Z,55.44
2022-09-20T17:28:47.717Z,55.13
2022-09-20T17:31:48.734Z,55.70
2022-09-20T17:34:37.690Z,55.79
2022-09-20T17:37:09.341Z,56.24
2022-09-20T17:39:45.947Z,56.57
2022-09-20T17:42:17.794Z,56.82
2022-09-20T17:44:46.629Z,57.09
2022-09-20T17:47:15.618Z,57.39
2022-09-20T17:49:46.760Z,57.37
2022-09-20T17:52:24.393Z,57.46
2022-09-20T17:54:53.991Z,57.78
2022-09-20T17:57:25.946Z,57.81
2022-09-20T17:59:52.781Z,57.75
2022-09-20T18:02:22.599Z,58.41
2022-09-20T18:04:49.773Z,58.43
2022-09-20T18:07:18.267Z,58.89
2022-09-20T18:10:10.928Z,58.99
2022-09-20T18:12:53.972Z,59.21
2022-09-20T18:15:28.419Z,59.26
2022-09-20T18:17:55.665Z,59.08
2022-09-20T18:20:22.771Z,59.85
2022-09-20T18:22:51.151Z,60.13
2022-09-20T18:25:18.219Z,60.40
2022-09-20T18:27:50.321Z,60.58
2022-09-20T18:30:31.880Z,60.55
2022-09-20T18:33:02.787Z,62.03
2022-09-20T18:35:34.253Z,60.92
2022-09-20T18:38:12.541Z,63.20
2022-09-20T18:40:54.326Z,61.87
2022-09-20T18:43:41.277Z,62.02
2022-09-20T18:46:08.329Z,62.21
2022-09-20T18:49:06.330Z,63.01
2022-09-20T18:54:28.027Z,63.47
2022-09-20T18:57:50.084Z,64.04
2022-09-20T19:13:46.604Z,65.24
2022-09-20T19:16:52.807Z,65.57
2022-09-20T19:30:27.106Z,67.33
2022-09-20T19:36:54.208Z,67.67
2022-09-20T19:40:31.387Z,68.79
2022-09-20T19:47:13.902Z,68.96
2022-09-20T19:56:35.877Z,69.61
2022-09-20T19:59:16.172Z,69.47
2022-09-20T20:02:14.292Z,70.08
2022-09-20T20:09:13.736Z,70.74
2022-09-20T20:12:14.873Z,71.26
2022-09-20T20:21:37.406Z,71.26
2022-09-20T20:44:47.451Z,72.51
2022-09-20T20:51:31.187Z,72.82
2022-09-20T20:54:32.213Z,72.71
2022-09-20T20:57:32.261Z,72.72
2022-09-20T21:00:57.164Z,72.82
2022-09-20T21:10:41.082Z,73.59
2022-09-20T21:14:23.515Z,73.27
2022-09-20T21:28:01.390Z,74.88
2022-09-20T21:37:41.965Z,74.99
2022-09-20T21:47:31.985Z,75.28
2022-09-20T21:50:35.635Z,75.49
2022-09-20T22:00:48.048Z,75.41
2022-09-20T22:03:33.014Z,75.77
2022-09-20T22:16:04.081Z,75.78
2022-09-20T22:24:05.812Z,76.21
2022-09-20T22:32:51.898Z,76.54
2022-09-20T22:36:29.424Z,77.02
2022-09-20T22:39:36.339Z,77.17
2022-09-20T22:42:22.254Z,77.10
2022-09-20T22:45:51.463Z,77.00
2022-09-20T22:55:25.464Z,77.36
2022-09-20T23:25:41.191Z,78.21
2022-09-20T23:31:47.449Z,78.69
2022-09-20T23:34:48.042Z,80.61
2022-09-20T23:37:44.522Z,79.16
2022-09-20T23:43:47.556Z,79.04
2022-09-20T23:56:35.721Z,79.36
